Portada
METAR-TAF:

METAR-TAF

Aeroports :

Exeter, Anglaterra

latitud: 50-44N, longitud: 003-25W, altitud: 30 m

Observació

L'informe es va fer fa 44 minuts, a les 21:50 UTC
Vent 4 kt del Est/Nord-Est
Temperatura 2°C
Humitat 100%
Pressió 988 hPa
Visibilitat 10 km o més
Escasses núvols a una alçada de 1500 ft

METAR: EGTE 132150Z 06004KT 9999 FEW015 02/02 Q0988

Hora: 22:34 (22:34 UTC)

Pronòstic

L'informe es va fer fa 2 hores i 36 minuts, a les 19:58 UTC
Pronòstic vàlid del 13 a les 21 UTC al 14 a les 04 UTC
Vent 3 kt amb direcció variable
Visibilitat 10 km o més
Núvols disperses a una alçada de 2000 ft
Probabilitat 30% :
Temporalment
l' 13 a les 21 UTC al 14 a les 02 UTC
Visibilitat: 7000 m
Cel ennuvolat a una alçada de 900 ft
xàfecs de pluja
Probabilitat 30% :
Temporalment
l' 14 a les 02 UTC al 14 a les 04 UTC
Visibilitat: 5000 m
boirina

TAF: EGTE 131958Z 1321/1404 VRB03KT 9999 SCT020 PROB30 TEMPO 1321/1402 7000 SHRA BKN009 PROB30 TEMPO 1402/1404 5000 BR

Observacions i pronòstics meteorològics de més de 4000 aeroports (METAR i TAF).

Les estacions disponibles són els punts grocs i vermells al mapa.

Posi el ratolí al punt desitjat per veure el nom de l'estació.

Feu clic per veure les observacions i els pronòstics meteorològics.

Per canviar el mapa: feu clic els botons verds amb una creu de color negre per apropar; al botó verd amb un guió per allunyar la imatge; o en les fletxes verdes per a mapes adjacents.


METAR-TAF: